Time;durP1;ratioP1;P1;durP2;ratioP2;P2;SDS_P1;SDS_P2;PMS_P1;PMS_P2;Temp;Humidity;BMP_temperature;BMP_pressure;BME280_temperature;BME280_humidity;BME280_pressure;Samples;Min_cycle;Max_cycle;Signal;HPM_P1;HPM_P2
2021/01/26 00:01:15;;;;;;;28.80;11.90;;;3.70;91.60;;;;;;5089143;28;20099;-76
2021/01/26 00:03:41;;;;;;;36.10;10.85;;;3.70;91.70;;;;;;5118435;27;20035;-76
2021/01/26 00:06:07;;;;;;;27.27;10.18;;;3.70;91.70;;;;;;5107045;27;20517;-76
2021/01/26 00:08:33;;;;;;;32.25;9.93;;;3.70;91.60;;;;;;5086232;28;20119;-76
2021/01/26 00:10:59;;;;;;;26.08;9.65;;;3.80;91.60;;;;;;5109672;27;20039;-76
2021/01/26 00:13:25;;;;;;;20.92;9.35;;;3.80;91.50;;;;;;5083809;28;20050;-76
2021/01/26 00:15:51;;;;;;;27.77;9.27;;;3.90;91.50;;;;;;5094045;27;21554;-76
2021/01/26 00:18:17;;;;;;;28.55;9.70;;;3.90;91.40;;;;;;5091176;27;20031;-76
2021/01/26 00:20:44;;;;;;;33.80;10.88;;;3.80;91.60;;;;;;5122856;27;20028;-76
2021/01/26 00:23:10;;;;;;;25.05;9.40;;;3.90;91.40;;;;;;5115973;28;20068;-76
2021/01/26 00:25:38;;;;;;;23.15;8.50;;;3.90;91.40;;;;;;5080827;28;20031;-76
2021/01/26 00:28:06;;;;;;;33.90;9.23;;;3.90;91.30;;;;;;5075013;28;20043;-76
2021/01/26 00:30:33;;;;;;;33.35;8.70;;;3.90;91.30;;;;;;5105417;28;20016;-76
2021/01/26 00:33:01;;;;;;;28.77;9.40;;;4.00;91.30;;;;;;5107499;28;20019;-76
2021/01/26 00:35:29;;;;;;;24.60;9.25;;;4.00;91.40;;;;;;5117146;28;20019;-76
2021/01/26 00:37:56;;;;;;;26.92;8.43;;;4.00;91.40;;;;;;5114462;28;20024;-76
2021/01/26 00:40:22;;;;;;;22.67;8.23;;;4.00;91.40;;;;;;5116500;28;20381;-76
2021/01/26 00:42:47;;;;;;;26.05;8.50;;;4.00;91.30;;;;;;5098370;28;20053;-76
2021/01/26 00:45:18;;;;;;;19.33;7.53;;;4.00;91.30;;;;;;5061712;28;20039;-77
2021/01/26 00:47:44;;;;;;;21.25;7.68;;;4.00;91.20;;;;;;5096603;28;20032;-76
2021/01/26 00:50:11;;;;;;;22.00;7.22;;;4.00;91.10;;;;;;5116841;28;20020;-76
2021/01/26 00:52:36;;;;;;;20.77;7.43;;;4.10;91.00;;;;;;5097727;28;20023;-76
2021/01/26 00:55:03;;;;;;;19.38;7.63;;;4.10;90.90;;;;;;5097130;28;20076;-76
2021/01/26 00:57:29;;;;;;;21.88;7.28;;;4.10;91.00;;;;;;5097726;28;20168;-77
2021/01/26 00:59:54;;;;;;;24.33;7.72;;;4.10;91.00;;;;;;5096325;28;20500;-76
2021/01/26 01:02:20;;;;;;;20.38;6.88;;;4.10;91.20;;;;;;5072923;28;20080;-76
2021/01/26 01:04:47;;;;;;;29.60;7.25;;;4.10;91.20;;;;;;5077942;28;20476;-78
2021/01/26 01:07:14;;;;;;;25.08;7.05;;;4.10;91.20;;;;;;5077560;28;20108;-76
2021/01/26 01:09:40;;;;;;;23.02;7.10;;;4.10;91.00;;;;;;5094489;28;20031;-76
2021/01/26 01:12:06;;;;;;;23.33;6.63;;;4.10;91.10;;;;;;5084505;28;20054;-76
2021/01/26 01:14:32;;;;;;;16.67;6.30;;;4.10;91.00;;;;;;5094456;28;20032;-76
2021/01/26 01:16:58;;;;;;;21.63;6.75;;;4.10;91.10;;;;;;5079684;28;20035;-76
2021/01/26 01:19:24;;;;;;;19.90;6.63;;;4.10;91.10;;;;;;5115545;28;20072;-76
2021/01/26 01:21:49;;;;;;;16.65;6.57;;;4.10;91.10;;;;;;5097932;28;20477;-76
2021/01/26 01:24:15;;;;;;;20.42;6.78;;;4.20;91.20;;;;;;5094073;28;20030;-76
2021/01/26 01:26:42;;;;;;;23.17;7.05;;;4.10;91.10;;;;;;5090911;28;20066;-77
2021/01/26 01:29:09;;;;;;;22.38;6.38;;;4.10;91.00;;;;;;5096222;28;20035;-76
2021/01/26 01:31:35;;;;;;;18.85;6.20;;;4.10;91.00;;;;;;5098468;28;20093;-76
2021/01/26 01:34:00;;;;;;;27.73;5.47;;;4.10;90.90;;;;;;5108949;28;20036;-76
2021/01/26 01:36:26;;;;;;;16.60;5.45;;;4.20;90.90;;;;;;5077182;28;20016;-76
2021/01/26 01:38:52;;;;;;;27.13;5.40;;;4.10;90.70;;;;;;5069209;28;20512;-76
2021/01/26 01:41:17;;;;;;;27.13;5.57;;;4.10;90.80;;;;;;5108825;28;20076;-76
2021/01/26 01:43:49;;;;;;;21.52;4.93;;;4.10;90.70;;;;;;5108508;28;20047;-76
2021/01/26 01:46:19;;;;;;;17.05;4.35;;;4.20;90.60;;;;;;5077350;28;20032;-76
2021/01/26 01:48:44;;;;;;;18.95;4.38;;;4.20;90.40;;;;;;5114867;27;20038;-76
2021/01/26 01:51:20;;;;;;;22.55;4.13;;;4.20;90.30;;;;;;5136125;27;20015;-76
2021/01/26 01:54:00;;;;;;;17.40;4.30;;;4.20;90.20;;;;;;5124085;27;20024;-76
2021/01/26 01:56:28;;;;;;;20.33;4.13;;;4.30;90.40;;;;;;5087579;28;20126;-76
2021/01/26 01:59:01;;;;;;;18.67;4.00;;;4.30;90.10;;;;;;5102274;28;20103;-78
2021/01/26 02:01:29;;;;;;;18.00;4.13;;;4.30;90.10;;;;;;5099934;27;20103;-77
2021/01/26 02:04:05;;;;;;;20.00;4.47;;;4.30;90.10;;;;;;5110210;28;20484;-76
2021/01/26 02:06:34;;;;;;;16.73;3.70;;;4.30;90.40;;;;;;5102282;27;20072;-76
2021/01/26 02:09:23;;;;;;;17.73;3.55;;;4.30;90.70;;;;;;5096536;28;20114;-76
2021/01/26 02:11:49;;;;;;;;;;;4.20;90.90;;;;;;5082169;28;20028;-76
2021/01/26 02:14:15;;;;;;;28.40;3.97;;;4.20;90.90;;;;;;5079405;27;19923;-76
2021/01/26 02:17:12;;;;;;;23.67;4.20;;;4.10;91.00;;;;;;5093214;28;20111;-76
2021/01/26 02:20:15;;;;;;;23.00;3.83;;;4.20;91.20;;;;;;5098215;28;20016;-76
2021/01/26 02:22:59;;;;;;;18.05;3.67;;;4.10;91.10;;;;;;5102011;28;20016;-76
2021/01/26 02:26:01;;;;;;;10.63;3.42;;;4.20;91.40;;;;;;5100593;28;20027;-76
2021/01/26 02:28:52;;;;;;;17.65;4.38;;;4.20;91.20;;;;;;5106661;28;20110;-76
2021/01/26 02:31:40;;;;;;;19.35;4.15;;;4.10;91.10;;;;;;5097018;27;20555;-76
2021/01/26 02:34:33;;;;;;;18.25;3.63;;;4.20;90.80;;;;;;5115581;27;20058;-76
2021/01/26 02:37:20;;;;;;;16.48;3.65;;;4.20;90.80;;;;;;5092015;27;20019;-76
2021/01/26 02:40:01;;;;;;;20.75;4.20;;;4.20;90.70;;;;;;5105290;28;20070;-76
2021/01/26 02:42:33;;;;;;;13.80;3.72;;;4.20;90.60;;;;;;5111901;27;20088;-76
2021/01/26 02:45:22;;;;;;;17.92;4.32;;;4.20;90.40;;;;;;5091027;28;20039;-76
2021/01/26 02:48:20;;;;;;;19.30;3.25;;;4.20;90.30;;;;;;5079635;28;20035;-76
2021/01/26 02:51:02;;;;;;;18.90;3.85;;;4.30;90.10;;;;;;5111019;28;20034;-76
2021/01/26 02:53:34;;;;;;;26.67;3.50;;;4.30;90.20;;;;;;5094983;28;20484;-76
2021/01/26 02:56:09;;;;;;;20.98;4.15;;;4.30;90.50;;;;;;5097898;27;20031;-76
2021/01/26 02:58:57;;;;;;;24.08;4.10;;;4.30;90.80;;;;;;5110398;28;20097;-76
2021/01/26 03:01:27;;;;;;;20.80;4.40;;;4.20;91.00;;;;;;5094443;28;20114;-76
2021/01/26 03:04:02;;;;;;;17.85;4.47;;;4.20;91.20;;;;;;5115045;27;20031;-76
2021/01/26 03:06:30;;;;;;;28.23;4.57;;;4.20;91.40;;;;;;5097679;28;20031;-76
2021/01/26 03:09:08;;;;;;;23.77;4.88;;;4.20;91.60;;;;;;5092750;28;20036;-75
2021/01/26 03:11:53;;;;;;;15.38;4.28;;;4.10;91.70;;;;;;5108963;28;20046;-76
2021/01/26 03:14:41;;;;;;;30.20;4.78;;;4.10;91.80;;;;;;5106511;27;20472;-76
2021/01/26 03:17:18;;;;;;;22.98;4.63;;;4.10;92.00;;;;;;5091449;28;20043;-76
2021/01/26 03:19:49;;;;;;;23.08;5.18;;;4.10;92.10;;;;;;5098068;28;20020;-76
2021/01/26 03:22:22;;;;;;;33.78;5.82;;;4.00;92.20;;;;;;5114185;27;20028;-75
2021/01/26 03:24:52;;;;;;;26.63;4.70;;;4.10;92.30;;;;;;5106501;27;20024;-77
2021/01/26 03:27:22;;;;;;;35.35;5.63;;;4.10;92.30;;;;;;5108744;28;20526;-77
2021/01/26 03:29:53;;;;;;;20.88;4.55;;;4.10;92.20;;;;;;5100986;28;20033;-76
2021/01/26 03:32:24;;;;;;;21.02;4.57;;;4.10;92.30;;;;;;5117862;27;20030;-76
2021/01/26 03:34:50;;;;;;;22.75;4.68;;;4.10;92.40;;;;;;5089377;28;20024;-76
2021/01/26 03:37:16;;;;;;;28.15;4.70;;;4.00;92.40;;;;;;5096317;28;20035;-76
2021/01/26 03:39:42;;;;;;;22.90;4.32;;;4.10;92.30;;;;;;5092603;28;20069;-76
2021/01/26 03:42:08;;;;;;;19.05;4.10;;;4.10;92.10;;;;;;5118144;27;20534;-76
2021/01/26 03:44:34;;;;;;;15.02;3.45;;;4.10;92.00;;;;;;5088417;27;20035;-76
2021/01/26 03:47:26;;;;;;;21.90;5.07;;;4.10;92.20;;;;;;5081863;28;20040;-76
2021/01/26 03:50:31;;;;;;;22.55;4.47;;;4.10;92.00;;;;;;5087249;28;20060;-76
2021/01/26 03:53:28;;;;;;;18.92;3.90;;;4.00;92.00;;;;;;5048883;28;20362;-76
2021/01/26 03:56:19;;;;;;;28.92;4.38;;;4.00;92.00;;;;;;5131117;27;20136;-76
2021/01/26 03:58:50;;;;;;;22.77;4.47;;;4.00;92.00;;;;;;5125286;27;20037;-77
2021/01/26 04:01:29;;;;;;;24.52;4.40;;;4.00;92.00;;;;;;5108151;27;20052;-76
2021/01/26 04:04:15;;;;;;;;;;;4.00;92.30;;;;;;5107002;28;20039;-76
2021/01/26 04:06:50;;;;;;;21.10;3.72;;;4.00;91.90;;;;;;5107310;28;20321;-76
2021/01/26 04:09:23;;;;;;;22.33;3.65;;;4.00;92.00;;;;;;5104677;28;20508;-76
2021/01/26 04:12:02;;;;;;;19.58;3.97;;;4.00;92.00;;;;;;5105401;27;20538;-76
2021/01/26 04:14:40;;;;;;;26.40;3.92;;;4.00;92.00;;;;;;5080812;28;20028;-76
2021/01/26 04:17:18;;;;;;;23.70;4.05;;;4.00;92.00;;;;;;5081750;28;20040;-76
2021/01/26 04:19:55;;;;;;;21.75;4.30;;;4.00;92.10;;;;;;5098333;27;20031;-76
2021/01/26 04:22:21;;;;;;;23.92;3.67;;;4.10;92.10;;;;;;5086573;28;20447;-76
2021/01/26 04:24:47;;;;;;;21.60;3.83;;;4.10;92.10;;;;;;5077930;28;20131;-76
2021/01/26 04:27:20;;;;;;;21.00;4.25;;;4.10;92.00;;;;;;5083835;28;21114;-76
2021/01/26 04:29:46;;;;;;;22.65;4.00;;;4.10;92.00;;;;;;5106773;27;20476;-76
2021/01/26 04:32:12;;;;;;;24.08;3.72;;;4.10;92.00;;;;;;5087233;28;20110;-76
2021/01/26 04:34:38;;;;;;;23.60;4.18;;;4.10;92.00;;;;;;5100513;27;20036;-76
2021/01/26 04:37:04;;;;;;;23.08;3.97;;;4.10;92.10;;;;;;5091853;28;20028;-77
2021/01/26 04:39:29;;;;;;;25.45;3.72;;;4.10;92.10;;;;;;5097719;27;20086;-76
2021/01/26 04:42:15;;;;;;;21.80;4.47;;;4.10;92.00;;;;;;5118137;27;20031;-76
2021/01/26 04:44:41;;;;;;;23.83;4.40;;;4.10;92.10;;;;;;5102934;28;20114;-76
2021/01/26 04:47:25;;;;;;;24.05;4.38;;;4.10;92.00;;;;;;5107584;28;20112;-76
2021/01/26 04:50:06;;;;;;;28.48;4.85;;;4.10;91.90;;;;;;5098465;28;20118;-76
2021/01/26 04:52:55;;;;;;;25.15;5.00;;;4.10;91.80;;;;;;5094688;28;20032;-76
2021/01/26 04:55:57;;;;;;;21.45;4.13;;;4.10;91.70;;;;;;5103920;27;20513;-76
2021/01/26 04:58:53;;;;;;;23.88;4.82;;;4.10;91.80;;;;;;5121364;27;20028;-76
2021/01/26 05:01:44;;;;;;;19.48;4.47;;;4.10;91.80;;;;;;5086893;28;20020;-76
2021/01/26 05:04:15;;;;;;;22.92;4.07;;;4.00;91.80;;;;;;5116394;27;20023;-76
2021/01/26 05:06:50;;;;;;;24.70;4.43;;;4.00;92.30;;;;;;5120924;27;20027;-76
2021/01/26 05:09:24;;;;;;;23.52;4.78;;;4.00;92.20;;;;;;5097449;28;20024;-76
2021/01/26 05:11:50;;;;;;;17.15;3.95;;;4.00;92.30;;;;;;5122733;27;20418;-76
2021/01/26 05:14:22;;;;;;;32.75;5.88;;;3.90;92.40;;;;;;5076707;28;20035;-76
2021/01/26 05:17:10;;;;;;;25.55;4.70;;;3.90;92.50;;;;;;5080063;28;20039;-77
2021/01/26 05:19:44;;;;;;;23.63;4.57;;;4.00;92.70;;;;;;5086036;28;20038;-76
2021/01/26 05:22:22;;;;;;;24.85;4.68;;;3.90;92.70;;;;;;5095952;28;20495;-76
2021/01/26 05:25:05;;;;;;;18.45;3.42;;;4.00;92.80;;;;;;5108968;27;20019;-77
2021/01/26 05:27:31;;;;;;;22.58;4.60;;;4.00;92.80;;;;;;5115412;27;20027;-76
2021/01/26 05:30:03;;;;;;;25.77;4.18;;;4.00;92.70;;;;;;5097555;28;20114;-76
2021/01/26 05:32:29;;;;;;;21.70;4.80;;;4.00;92.70;;;;;;5077545;28;20035;-76
2021/01/26 05:34:56;;;;;;;20.02;3.97;;;4.00;92.70;;;;;;5055795;28;20096;-76
2021/01/26 05:37:23;;;;;;;29.35;4.40;;;4.00;92.70;;;;;;5115426;28;20076;-76
2021/01/26 05:40:03;;;;;;;20.10;4.50;;;4.00;92.60;;;;;;5096813;28;20044;-76
2021/01/26 05:42:31;;;;;;;27.42;4.35;;;4.00;92.60;;;;;;5117425;27;20031;-76
2021/01/26 05:45:02;;;;;;;25.08;4.22;;;4.00;92.60;;;;;;5088246;28;20032;-75
2021/01/26 05:47:34;;;;;;;15.13;3.67;;;3.90;92.60;;;;;;5111688;27;20046;-76
2021/01/26 05:50:00;;;;;;;28.10;5.40;;;3.80;92.60;;;;;;5113487;27;20027;-76
2021/01/26 05:52:38;;;;;;;22.17;4.40;;;3.80;92.60;;;;;;5073726;27;20369;-76
2021/01/26 05:55:16;;;;;;;23.33;5.20;;;3.80;92.70;;;;;;5096835;28;20061;-76
2021/01/26 05:57:41;;;;;;;18.45;3.42;;;3.70;92.70;;;;;;5113584;27;20016;-76
2021/01/26 06:00:19;;;;;;;17.15;3.80;;;3.80;92.60;;;;;;5093572;28;20031;-75
2021/01/26 06:02:45;;;;;;;21.35;3.97;;;3.80;92.60;;;;;;5112822;28;20372;-75
2021/01/26 06:05:16;;;;;;;22.77;4.38;;;3.80;92.60;;;;;;5115348;28;20103;-75
2021/01/26 06:07:43;;;;;;;30.58;5.45;;;3.80;92.60;;;;;;5131756;27;20019;-75
2021/01/26 06:10:17;;;;;;;23.67;5.07;;;3.80;93.00;;;;;;5114482;27;20108;-75
2021/01/26 06:12:54;;;;;;;18.67;4.30;;;3.80;92.80;;;;;;5076626;28;20051;-76
2021/01/26 06:15:32;;;;;;;29.58;5.93;;;3.80;92.90;;;;;;5101752;27;20123;-75
2021/01/26 06:18:19;;;;;;;32.20;6.70;;;3.80;92.90;;;;;;5102409;27;20028;-76
2021/01/26 06:21:08;;;;;;;26.38;5.90;;;3.80;93.10;;;;;;5095804;28;20027;-75
2021/01/26 06:23:35;;;;;;;33.83;5.53;;;3.80;93.20;;;;;;5093609;28;20122;-75
2021/01/26 06:26:04;;;;;;;24.33;5.63;;;3.80;93.30;;;;;;5082122;28;20750;-76
2021/01/26 06:28:52;;;;;;;24.95;4.88;;;3.80;93.30;;;;;;5112840;27;20028;-75
2021/01/26 06:31:58;;;;;;;20.88;5.00;;;3.80;93.30;;;;;;5110057;27;20055;-76
2021/01/26 06:34:34;;;;;;;26.98;5.05;;;3.90;93.30;;;;;;5085858;28;20032;-75
2021/01/26 06:37:14;;;;;;;24.42;5.45;;;3.90;93.50;;;;;;5096570;28;20103;-75
2021/01/26 06:39:58;;;;;;;19.40;4.80;;;3.90;93.60;;;;;;5074994;28;20043;-75
2021/01/26 06:42:42;;;;;;;34.33;5.90;;;3.90;93.20;;;;;;5096785;28;20031;-76
2021/01/26 06:45:33;;;;;;;29.20;5.45;;;3.80;93.20;;;;;;5103927;28;20091;-75
2021/01/26 06:48:13;;;;;;;26.98;5.40;;;3.80;93.30;;;;;;5102601;28;20496;-76
2021/01/26 06:51:17;;;;;;;26.38;5.60;;;3.80;93.30;;;;;;5109530;28;20024;-75
2021/01/26 06:54:07;;;;;;;29.75;4.80;;;3.80;93.40;;;;;;5106381;27;20437;-76
2021/01/26 06:57:00;;;;;;;27.25;5.75;;;3.80;93.40;;;;;;5102029;28;20016;-75
2021/01/26 06:59:25;;;;;;;26.98;5.72;;;3.80;93.40;;;;;;5114425;28;20011;-75
2021/01/26 07:02:22;;;;;;;23.55;5.25;;;3.80;93.30;;;;;;5105517;28;20011;-75
2021/01/26 07:05:06;;;;;;;26.63;5.32;;;3.80;93.40;;;;;;5125565;27;20491;-75
2021/01/26 07:08:17;;;;;;;30.33;5.05;;;3.80;93.40;;;;;;5113212;28;20036;-75
2021/01/26 07:11:17;;;;;;;32.53;5.22;;;3.80;93.40;;;;;;5113978;28;20020;-75
2021/01/26 07:14:07;;;;;;;29.05;5.88;;;3.70;93.40;;;;;;5113723;28;20073;-75
2021/01/26 07:16:56;;;;;;;21.80;4.95;;;3.80;93.40;;;;;;5113674;28;20084;-75
2021/01/26 07:19:49;;;;;;;21.70;4.57;;;3.70;93.40;;;;;;5095558;28;20019;-75
2021/01/26 07:22:24;;;;;;;22.83;5.20;;;3.80;93.40;;;;;;5117316;27;20016;-75
2021/01/26 07:25:22;;;;;;;25.17;5.18;;;3.80;93.20;;;;;;5099568;28;20040;-76
2021/01/26 07:27:50;;;;;;;19.17;5.05;;;3.80;93.30;;;;;;5006970;28;20034;-75
2021/01/26 07:30:26;;;;;;;16.88;4.55;;;3.70;93.20;;;;;;5096697;28;20027;-75
2021/01/26 07:33:01;;;;;;;19.27;4.03;;;3.80;93.20;;;;;;5106299;28;20035;-75
2021/01/26 07:35:38;;;;;;;13.23;3.92;;;3.80;93.20;;;;;;5111974;28;20048;-75
2021/01/26 07:38:28;;;;;;;13.00;3.85;;;3.70;93.10;;;;;;5112439;28;20024;-76
2021/01/26 07:41:06;;;;;;;16.98;4.38;;;3.70;93.10;;;;;;5111611;28;20047;-75
2021/01/26 07:43:52;;;;;;;15.27;4.53;;;3.60;93.00;;;;;;5133982;27;20441;-75
2021/01/26 07:46:36;;;;;;;14.73;5.85;;;3.60;93.10;;;;;;5120754;28;20095;-75
2021/01/26 07:49:05;;;;;;;18.65;5.75;;;3.60;93.30;;;;;;5095577;28;20026;-75
2021/01/26 07:51:36;;;;;;;22.85;6.00;;;3.60;93.30;;;;;;5118965;28;20024;-75
2021/01/26 07:54:14;;;;;;;22.92;6.85;;;3.60;93.40;;;;;;5094789;28;20032;-75
2021/01/26 07:56:40;;;;;;;23.92;7.22;;;3.70;93.50;;;;;;5113508;28;20016;-75
2021/01/26 07:59:13;;;;;;;20.50;7.00;;;3.60;93.50;;;;;;5095386;28;20028;-75
2021/01/26 08:01:54;;;;;;;26.05;6.80;;;3.60;93.60;;;;;;5095508;28;20019;-75
2021/01/26 08:04:20;;;;;;;25.67;6.85;;;3.70;93.60;;;;;;5095360;28;20472;-76
2021/01/26 08:06:50;;;;;;;28.92;7.10;;;3.70;93.50;;;;;;5083409;28;20082;-75
2021/01/26 08:09:47;;;;;;;23.10;6.30;;;3.70;93.50;;;;;;5091997;28;20029;-75
2021/01/26 08:12:28;;;;;;;19.45;5.90;;;3.70;93.50;;;;;;5071637;28;20050;-76
2021/01/26 08:14:56;;;;;;;24.48;6.22;;;3.70;93.50;;;;;;5098542;28;20035;-75
2021/01/26 08:17:33;;;;;;;20.55;5.55;;;3.70;93.50;;;;;;5134124;27;20031;-75
2021/01/26 08:20:04;;;;;;;27.45;5.40;;;3.80;93.70;;;;;;5119466;27;20080;-75
2021/01/26 08:22:38;;;;;;;22.65;4.95;;;3.80;93.30;;;;;;5133927;28;20020;-75
2021/01/26 08:25:11;;;;;;;27.20;4.55;;;3.80;93.10;;;;;;5130962;27;20421;-75
2021/01/26 08:27:37;;;;;;;25.83;4.72;;;3.80;92.90;;;;;;5113409;27;20027;-75
2021/01/26 08:30:11;;;;;;;20.70;4.60;;;3.90;92.70;;;;;;5115852;28;20476;-75
2021/01/26 08:32:37;;;;;;;21.83;5.13;;;3.90;92.70;;;;;;5098889;28;20019;-75
2021/01/26 08:35:08;;;;;;;28.92;5.55;;;3.80;92.70;;;;;;5115050;28;20518;-75
2021/01/26 08:37:43;;;;;;;26.40;4.55;;;3.80;92.70;;;;;;5115274;28;20020;-75
2021/01/26 08:40:17;;;;;;;23.15;4.47;;;3.90;93.00;;;;;;5113921;28;20122;-75
2021/01/26 08:42:43;;;;;;;19.73;4.57;;;3.90;92.60;;;;;;5115804;28;20038;-75
2021/01/26 08:45:33;;;;;;;14.68;4.22;;;3.90;92.50;;;;;;5122053;27;20027;-75
2021/01/26 08:48:09;;;;;;;22.23;4.63;;;4.00;92.40;;;;;;5118533;27;20040;-75
2021/01/26 08:50:39;;;;;;;19.27;5.18;;;4.00;92.50;;;;;;5092751;28;20032;-75
2021/01/26 09:15:07;;;;;;;19.20;4.53;;;4.20;92.10;;;;;;5085071;27;20038;-74
2021/01/26 09:17:36;;;;;;;22.85;4.75;;;4.30;92.20;;;;;;5056268;28;20040;-74
2021/01/26 09:20:21;;;;;;;28.08;4.72;;;4.30;92.00;;;;;;5075841;28;20056;-74
2021/01/26 09:22:47;;;;;;;22.08;4.78;;;4.40;92.10;;;;;;5076439;28;20069;-74
2021/01/26 09:25:22;;;;;;;17.08;4.70;;;4.40;92.10;;;;;;5070575;28;20052;-74
2021/01/26 09:28:06;;;;;;;17.23;3.95;;;4.50;92.10;;;;;;5080532;28;20035;-74
2021/01/26 09:30:32;;;;;;;16.08;4.47;;;4.50;92.20;;;;;;5077255;28;20082;-74
2021/01/26 09:32:58;;;;;;;20.50;4.55;;;4.50;91.90;;;;;;5085712;28;20028;-74
2021/01/26 09:35:29;;;;;;;16.40;4.20;;;4.50;91.80;;;;;;5088698;28;20062;-74
2021/01/26 09:38:01;;;;;;;17.27;3.72;;;4.50;91.80;;;;;;5086942;28;20464;-74
2021/01/26 09:40:27;;;;;;;17.70;3.90;;;4.50;91.80;;;;;;5085741;28;20044;-74
2021/01/26 09:43:12;;;;;;;16.23;3.38;;;4.40;91.60;;;;;;5072464;28;20044;-74
2021/01/26 09:45:38;;;;;;;14.98;3.88;;;4.40;91.70;;;;;;5071016;28;20029;-74
2021/01/26 09:48:05;;;;;;;16.67;3.47;;;4.40;91.80;;;;;;5097928;27;20524;-75
2021/01/26 09:50:31;;;;;;;11.27;3.33;;;4.40;91.70;;;;;;5103809;27;20388;-75
2021/01/26 09:53:02;;;;;;;12.20;3.33;;;4.40;91.70;;;;;;5127480;27;20433;-74
2021/01/26 09:55:30;;;;;;;11.57;3.53;;;4.40;91.70;;;;;;5128306;27;20044;-74
2021/01/26 09:57:56;;;;;;;16.48;4.00;;;4.40;91.80;;;;;;5109917;27;20477;-74
2021/01/26 10:00:25;;;;;;;18.60;4.30;;;4.40;91.90;;;;;;5111505;27;20067;-74
2021/01/26 10:02:56;;;;;;;10.10;3.78;;;4.40;91.90;;;;;;5112271;27;20476;-75
2021/01/26 10:05:28;;;;;;;13.70;4.55;;;4.40;92.00;;;;;;5128453;27;20027;-74
2021/01/26 10:08:12;;;;;;;13.88;4.65;;;4.40;92.10;;;;;;5126675;27;20061;-74
2021/01/26 10:10:39;;;;;;;12.75;4.50;;;4.40;92.50;;;;;;5116965;27;20023;-74
2021/01/26 10:13:26;;;;;;;14.98;4.78;;;4.40;92.00;;;;;;5110549;27;20495;-74
2021/01/26 10:15:52;;;;;;;26.63;6.00;;;4.50;92.20;;;;;;5126433;27;20043;-74
2021/01/26 10:18:21;;;;;;;16.52;6.20;;;4.50;92.50;;;;;;5102777;27;20110;-74
2021/01/26 10:20:47;;;;;;;15.02;5.70;;;4.40;92.50;;;;;;5110531;27;20019;-74
2021/01/26 10:23:25;;;;;;;26.13;7.35;;;4.50;92.70;;;;;;5107626;27;20657;-74
2021/01/26 10:25:53;;;;;;;21.27;7.43;;;4.50;92.80;;;;;;5129571;27;20412;-74
2021/01/26 10:28:27;;;;;;;17.58;7.05;;;4.60;92.80;;;;;;5129371;27;20015;-74
2021/01/26 10:30:55;;;;;;;24.17;8.50;;;4.60;92.90;;;;;;5112552;27;20676;-74
2021/01/26 10:33:33;;;;;;;26.40;9.02;;;4.60;92.80;;;;;;5129177;27;20030;-74
2021/01/26 10:36:31;;;;;;;22.42;6.78;;;4.60;93.00;;;;;;5128997;27;20388;-76
2021/01/26 10:39:20;;;;;;;27.20;8.50;;;4.60;92.90;;;;;;5109349;28;20019;-74
2021/01/26 10:41:46;;;;;;;28.55;7.88;;;4.70;92.90;;;;;;5089800;28;20051;-74
2021/01/26 10:44:15;;;;;;;31.45;8.68;;;4.70;92.70;;;;;;5109348;28;20020;-75
2021/01/26 10:46:47;;;;;;;24.70;7.50;;;4.80;92.90;;;;;;5105701;28;20035;-75
2021/01/26 10:49:35;;;;;;;20.15;7.25;;;4.80;92.90;;;;;;5087563;28;20036;-75
2021/01/26 10:52:06;;;;;;;20.52;6.88;;;4.90;92.80;;;;;;5100821;28;20053;-75
2021/01/26 10:54:32;;;;;;;27.63;6.60;;;4.90;92.60;;;;;;5104311;28;20032;-75
2021/01/26 10:56:58;;;;;;;19.55;6.07;;;4.90;92.50;;;;;;5106065;28;20027;-75
2021/01/26 10:59:24;;;;;;;27.63;6.53;;;4.90;92.60;;;;;;5087958;28;20038;-75
2021/01/26 11:01:50;;;;;;;26.45;6.80;;;5.00;92.60;;;;;;5088524;28;20468;-76
2021/01/26 11:04:19;;;;;;;24.75;7.60;;;5.00;92.60;;;;;;5103703;28;20020;-75
2021/01/26 11:06:46;;;;;;;18.52;6.38;;;5.00;92.60;;;;;;5085360;28;20024;-75
2021/01/26 11:09:14;;;;;;;25.23;6.20;;;5.10;92.40;;;;;;5093310;28;20035;-76
2021/01/26 11:11:39;;;;;;;24.33;6.40;;;5.10;92.20;;;;;;5091928;28;20085;-75
2021/01/26 11:14:07;;;;;;;15.70;5.72;;;5.20;92.30;;;;;;5075776;28;20036;-76
2021/01/26 11:16:34;;;;;;;23.88;5.88;;;5.20;92.30;;;;;;5075790;28;20039;-76
2021/01/26 11:19:00;;;;;;;20.05;5.22;;;5.30;92.30;;;;;;5075629;28;20077;-76
2021/01/26 11:21:27;;;;;;;22.67;5.70;;;5.40;92.10;;;;;;5076402;28;20384;-76
2021/01/26 11:23:53;;;;;;;24.42;6.13;;;5.40;92.00;;;;;;5087880;28;20038;-76
2021/01/26 11:26:21;;;;;;;26.00;5.63;;;5.50;92.30;;;;;;5081584;28;20055;-76
2021/01/26 11:28:48;;;;;;;29.05;6.82;;;5.50;92.30;;;;;;5098504;28;20020;-76
2021/01/26 11:31:15;;;;;;;25.48;6.05;;;5.60;92.10;;;;;;5075389;28;20113;-76
2021/01/26 11:33:41;;;;;;;28.02;6.13;;;5.70;92.20;;;;;;5093273;28;20024;-76
2021/01/26 11:36:07;;;;;;;22.27;5.40;;;5.70;91.90;;;;;;5075145;28;20131;-76
2021/01/26 11:38:33;;;;;;;17.75;5.75;;;5.70;91.70;;;;;;5110388;28;20045;-76
2021/01/26 11:41:02;;;;;;;28.80;5.45;;;5.80;91.80;;;;;;5129326;28;20045;-76
2021/01/26 11:43:28;;;;;;;25.35;5.18;;;5.70;91.60;;;;;;5114638;28;20076;-76
2021/01/26 11:45:54;;;;;;;25.60;5.60;;;5.80;91.50;;;;;;5132359;28;20035;-77
2021/01/26 11:48:20;;;;;;;17.90;4.82;;;5.70;91.30;;;;;;5115433;28;20027;-77
2021/01/26 11:50:45;;;;;;;18.33;5.20;;;5.70;91.40;;;;;;5118308;28;20049;-76
2021/01/26 11:53:14;;;;;;;22.00;5.00;;;5.70;91.40;;;;;;5111694;28;20036;-76
2021/01/26 11:55:40;;;;;;;14.85;4.85;;;5.70;91.30;;;;;;5095021;28;20447;-76
2021/01/26 11:58:06;;;;;;;19.88;5.25;;;5.70;91.30;;;;;;5079614;28;20032;-76
2021/01/26 12:00:33;;;;;;;23.08;5.32;;;5.80;91.30;;;;;;5061601;28;20080;-76
2021/01/26 12:03:00;;;;;;;16.98;4.72;;;5.80;90.90;;;;;;5089938;28;20031;-76
2021/01/26 12:05:28;;;;;;;24.45;4.57;;;5.80;90.60;;;;;;5110031;28;20101;-76
2021/01/26 12:07:54;;;;;;;27.95;5.05;;;5.90;90.50;;;;;;5117509;28;20051;-76
2021/01/26 12:10:20;;;;;;;20.80;4.65;;;6.00;90.10;;;;;;5116519;28;20060;-76
2021/01/26 12:12:46;;;;;;;19.98;4.82;;;6.30;89.40;;;;;;5101694;28;20430;-76
2021/01/26 12:15:18;;;;;;;19.88;4.45;;;6.40;88.40;;;;;;5117068;28;20035;-76
2021/01/26 12:17:44;;;;;;;18.25;4.70;;;6.60;87.10;;;;;;5116068;28;20031;-76
2021/01/26 12:20:11;;;;;;;16.65;4.57;;;6.80;86.30;;;;;;5117750;28;20024;-76
2021/01/26 12:22:36;;;;;;;20.52;4.88;;;7.00;86.00;;;;;;5116939;28;20102;-76
2021/01/26 12:25:03;;;;;;;17.33;4.22;;;7.20;85.20;;;;;;5099202;28;20425;-76
2021/01/26 12:27:29;;;;;;;18.45;3.70;;;7.10;84.80;;;;;;5099220;28;20024;-76
2021/01/26 12:29:54;;;;;;;15.38;4.07;;;6.80;85.20;;;;;;5098814;28;20477;-76
2021/01/26 12:32:20;;;;;;;17.60;4.45;;;6.60;86.10;;;;;;5099090;28;20041;-76
2021/01/26 12:34:46;;;;;;;16.17;4.70;;;6.50;87.30;;;;;;5117083;28;20027;-76
2021/01/26 12:37:11;;;;;;;18.30;3.92;;;6.50;87.40;;;;;;5081913;28;20027;-76
2021/01/26 12:39:37;;;;;;;21.42;4.40;;;6.60;86.90;;;;;;5098603;28;20047;-76
2021/01/26 12:42:03;;;;;;;19.30;4.63;;;6.70;85.90;;;;;;5098894;28;20023;-76
2021/01/26 12:44:28;;;;;;;16.55;4.32;;;6.80;85.90;;;;;;5098945;28;20028;-76
2021/01/26 12:46:54;;;;;;;17.98;3.75;;;6.90;85.50;;;;;;5098593;28;20031;-76
2021/01/26 12:49:21;;;;;;;17.10;3.92;;;6.80;85.00;;;;;;5098396;28;20028;-76
2021/01/26 12:51:46;;;;;;;17.35;4.82;;;6.70;85.40;;;;;;5098527;28;20040;-76
2021/01/26 12:54:12;;;;;;;14.75;3.88;;;6.60;86.50;;;;;;5081460;28;20503;-77
2021/01/26 12:56:37;;;;;;;18.95;4.47;;;6.50;87.50;;;;;;5098482;28;20020;-76
2021/01/26 12:59:03;;;;;;;16.70;4.05;;;6.50;87.70;;;;;;5116484;28;20032;-76
2021/01/26 13:01:29;;;;;;;9.43;4.05;;;6.50;86.90;;;;;;5081463;28;20111;-76
2021/01/26 13:03:54;;;;;;;24.75;4.82;;;6.50;86.10;;;;;;5098162;28;20032;-76
2021/01/26 13:06:20;;;;;;;17.67;5.10;;;6.40;85.70;;;;;;5081528;28;20477;-76
2021/01/26 13:08:46;;;;;;;18.27;4.82;;;6.40;86.60;;;;;;5098298;28;20395;-76
2021/01/26 13:11:12;;;;;;;21.35;4.85;;;6.40;86.90;;;;;;5098123;28;20548;-76
2021/01/26 13:13:38;;;;;;;11.88;4.65;;;6.40;87.30;;;;;;5080124;28;20396;-76
2021/01/26 13:16:04;;;;;;;19.40;4.43;;;6.40;87.50;;;;;;5097875;28;20032;-77
2021/01/26 13:18:29;;;;;;;11.48;4.15;;;6.40;85.50;;;;;;5116359;28;20027;-76
2021/01/26 13:20:55;;;;;;;16.70;4.72;;;6.40;84.80;;;;;;5098437;28;20024;-76
2021/01/26 13:23:21;;;;;;;17.02;4.40;;;6.30;84.30;;;;;;5097955;28;20020;-76
2021/01/26 13:25:47;;;;;;;14.57;4.47;;;6.30;85.00;;;;;;5081044;28;20032;-76
2021/01/26 13:28:13;;;;;;;15.88;4.95;;;6.20;85.00;;;;;;5116136;28;20491;-76
2021/01/26 13:30:41;;;;;;;13.65;4.15;;;6.20;85.30;;;;;;5097881;28;20476;-77
2021/01/26 13:33:07;;;;;;;11.20;3.10;;;6.30;85.80;;;;;;5081335;28;20558;-77
2021/01/26 13:35:34;;;;;;;14.13;3.10;;;6.30;85.80;;;;;;5064162;28;20032;-76
2021/01/26 13:38:01;;;;;;;11.65;2.83;;;6.30;86.00;;;;;;5081166;28;20430;-77
2021/01/26 13:40:27;;;;;;;14.30;2.75;;;6.40;85.00;;;;;;5080643;28;20127;-76